Athabasca, Canada
Current Conditions -  °F | °C
As of 5:00 PM on Wednesday 26 Nov 2014 (Local Time) from CYZH Reporting Station
Overcast Overcast  
Wind Chill: 12°   Ceiling: 9500
Heat Index: 12°   Visibility: 9mi
Dew Point: 10°   Wind: 0mph
Humidity: 92%   Direction: NA
Pressure: 30.15"   Gusts: NA
Location:  54.72°N, 113.27°W
Report Text: CYZH 270000Z AUTO 00000KT 9SM OVC095 M11/M12 A3015 RMK SLP259
Loading
Personal Weather Stations






























Interactive Weather Map New forecast layout! Learn more

10-Day Weather Forecast

Advertisements
Track Severe Weather on mobile